createdAt,value
2022-08-14T00:00:06.856Z,100048.31
2022-08-14T00:05:16.509Z,100051.25
2022-08-14T00:10:50.377Z,100048.38
2022-08-14T00:15:48.259Z,100048.00
2022-08-14T00:20:51.879Z,100054.44
2022-08-14T00:26:05.871Z,100043.78
2022-08-14T00:31:09.850Z,100047.81
2022-08-14T00:36:37.694Z,100044.13
2022-08-14T00:41:39.189Z,100051.53
2022-08-14T00:46:42.285Z,100043.78
2022-08-14T00:51:45.546Z,100044.00
2022-08-14T00:56:55.578Z,100034.19
2022-08-14T01:02:01.543Z,100037.09
2022-08-14T01:07:04.967Z,100034.88
2022-08-14T01:12:13.362Z,100033.25
2022-08-14T01:17:49.274Z,100025.06
2022-08-14T01:22:55.002Z,100028.97
2022-08-14T01:27:58.774Z,100036.31
2022-08-14T01:33:02.897Z,100029.56
2022-08-14T01:38:07.530Z,100037.16
2022-08-14T01:43:15.715Z,100031.66
2022-08-14T01:48:20.757Z,100024.69
2022-08-14T01:53:25.608Z,100024.31
2022-08-14T01:58:35.570Z,100016.16
2022-08-14T02:03:58.820Z,100012.06
2022-08-14T02:09:04.338Z,100004.94
2022-08-14T02:14:31.141Z,99991.84
2022-08-14T02:19:35.743Z,100004.59
2022-08-14T02:24:45.238Z,99999.69
2022-08-14T02:29:59.191Z,99991.94
2022-08-14T02:35:06.855Z,99995.44
2022-08-14T02:40:12.641Z,100003.81
2022-08-14T02:45:15.506Z,99990.34
2022-08-14T02:50:21.236Z,100005.88
2022-08-14T02:55:33.009Z,100001.81
2022-08-14T03:00:40.103Z,100005.69
2022-08-14T03:05:43.311Z,99999.16
2022-08-14T03:10:48.598Z,99997.28
2022-08-14T03:15:55.833Z,99980.91
2022-08-14T03:21:01.053Z,99985.63
2022-08-14T03:26:07.124Z,99970.69
2022-08-14T03:31:13.374Z,99981.34
2022-08-14T03:37:51.892Z,99988.50
2022-08-14T03:41:42.139Z,99978.91
2022-08-14T03:46:54.585Z,99975.19
2022-08-14T03:52:00.865Z,99975.19
2022-08-14T03:57:06.031Z,99956.59
2022-08-14T04:02:09.584Z,99954.78
2022-08-14T04:07:32.907Z,99944.78
2022-08-14T04:12:40.412Z,99953.31
2022-08-14T04:17:43.895Z,99957.19
2022-08-14T04:22:51.123Z,99958.22
2022-08-14T04:28:02.211Z,99960.47
2022-08-14T04:33:13.597Z,99967.63
2022-08-14T04:38:40.695Z,99958.41
2022-08-14T04:43:45.191Z,99947.75
2022-08-14T04:48:51.401Z,99942.03
2022-08-14T04:54:03.146Z,99943.66
2022-08-14T04:59:10.261Z,99942.81
2022-08-14T05:04:14.578Z,99939.75
2022-08-14T05:09:23.602Z,99936.44
2022-08-14T05:14:46.353Z,99926.00
2022-08-14T05:21:04.310Z,99921.66
2022-08-14T05:25:13.978Z,99929.84
2022-08-14T05:30:20.015Z,99921.78
2022-08-14T05:35:22.843Z,99923.97
2022-08-14T05:40:26.918Z,99915.06
2022-08-14T05:45:31.055Z,99912.16
2022-08-14T05:50:35.018Z,99900.22
2022-08-14T05:55:42.794Z,99915.31
2022-08-14T06:00:49.920Z,99884.84
2022-08-14T06:05:54.060Z,99892.97
2022-08-14T06:11:02.999Z,99896.09
2022-08-14T06:16:07.988Z,99891.22
2022-08-14T06:21:13.573Z,99877.94
2022-08-14T06:26:16.477Z,99869.94
2022-08-14T06:31:25.037Z,99869.66
2022-08-14T06:36:27.735Z,99860.44
2022-08-14T06:41:35.975Z,99855.91
2022-08-14T06:46:54.896Z,99856.41
2022-08-14T06:51:57.679Z,99860.41
2022-08-14T06:57:00.408Z,99855.47
2022-08-14T07:02:22.082Z,99849.97
2022-08-14T07:07:25.497Z,99855.03
2022-08-14T07:12:52.231Z,99857.47
2022-08-14T07:17:55.652Z,99852.91
2022-08-14T07:23:07.718Z,99851.38
2022-08-14T07:28:20.830Z,99852.25
2022-08-14T07:33:29.151Z,99851.41
2022-08-14T07:38:37.952Z,99850.81
2022-08-14T07:48:48.371Z,99840.50
2022-08-14T07:53:56.782Z,99839.72
2022-08-14T07:59:00.152Z,99836.28
2022-08-14T08:04:09.162Z,99828.47
2022-08-14T08:09:20.534Z,99841.31
2022-08-14T08:14:26.075Z,99831.94
2022-08-14T08:19:36.888Z,99826.63
2022-08-14T08:24:43.249Z,99840.44
2022-08-14T08:29:50.839Z,99833.81
2022-08-14T08:34:55.283Z,99828.28
2022-08-14T08:40:01.515Z,99828.25
2022-08-14T08:45:05.391Z,99827.75
2022-08-14T08:50:31.453Z,99822.75
2022-08-14T08:55:35.532Z,99801.47
2022-08-14T09:00:40.940Z,99808.53
2022-08-14T09:05:57.788Z,99794.19
2022-08-14T09:11:01.990Z,99791.50
2022-08-14T09:16:18.515Z,99779.69
2022-08-14T09:21:25.081Z,99772.81
2022-08-14T09:26:34.893Z,99764.16
2022-08-14T09:31:42.846Z,99768.28
2022-08-14T09:37:24.658Z,99758.94
2022-08-14T09:42:50.058Z,99753.63
2022-08-14T09:47:56.084Z,99746.91
2022-08-14T09:53:04.021Z,99738.59
2022-08-14T09:58:19.476Z,99733.50
2022-08-14T10:03:28.891Z,99734.31
2022-08-14T10:08:42.053Z,99714.66
2022-08-14T10:13:52.653Z,99698.19
2022-08-14T10:19:07.242Z,99696.25
2022-08-14T10:24:17.629Z,99694.88
2022-08-14T10:29:32.409Z,99688.63
2022-08-14T10:34:38.697Z,99682.09
2022-08-14T10:40:01.714Z,99670.97
2022-08-14T10:45:21.208Z,99675.50
2022-08-14T10:50:35.791Z,99668.66
2022-08-14T10:55:45.432Z,99659.38
2022-08-14T11:00:56.870Z,99660.78
2022-08-14T11:06:01.154Z,99650.53
2022-08-14T11:11:07.090Z,99654.84
2022-08-14T11:16:11.900Z,99637.22
2022-08-14T11:21:19.045Z,99634.19
2022-08-14T11:26:30.173Z,99636.16
2022-08-14T11:31:38.714Z,99630.06
2022-08-14T11:37:02.313Z,99630.66
2022-08-14T11:42:57.422Z,99620.94
2022-08-14T11:47:35.129Z,99622.88
2022-08-14T11:52:50.667Z,99610.31
2022-08-14T11:58:03.786Z,99606.88
2022-08-14T12:03:09.481Z,99599.63
2022-08-14T12:08:14.707Z,99594.00
2022-08-14T12:13:32.250Z,99581.25
2022-08-14T12:18:39.869Z,99574.56
2022-08-14T12:23:42.702Z,99572.31
2022-08-14T12:28:59.654Z,99565.25
2022-08-14T12:34:10.160Z,99550.28
2022-08-14T12:39:19.698Z,99553.19
2022-08-14T12:44:32.296Z,99533.56
2022-08-14T12:49:35.629Z,99535.22
2022-08-14T12:54:43.581Z,99522.72
2022-08-14T13:00:22.728Z,99518.69
2022-08-14T13:05:29.053Z,99519.53
2022-08-14T13:10:52.062Z,99515.03
2022-08-14T13:15:57.596Z,99504.59
2022-08-14T13:21:01.923Z,99486.03
2022-08-14T13:26:05.479Z,99475.28
2022-08-14T13:31:11.784Z,99468.53
2022-08-14T13:36:24.550Z,99470.25
2022-08-14T13:41:38.500Z,99460.88
2022-08-14T13:46:44.405Z,99447.84
2022-08-14T13:51:50.496Z,99442.91
2022-08-14T13:56:55.898Z,99442.28
2022-08-14T14:02:06.003Z,99427.84
2022-08-14T14:07:13.214Z,99432.34
2022-08-14T14:12:37.664Z,99435.03
2022-08-14T14:17:44.040Z,99421.56
2022-08-14T14:23:02.660Z,99414.00
2022-08-14T14:28:06.110Z,99407.69
2022-08-14T14:33:42.369Z,99400.97
2022-08-14T14:38:42.136Z,99396.97
2022-08-14T14:43:51.651Z,99378.16
2022-08-14T14:48:56.323Z,99380.38
2022-08-14T14:53:59.271Z,99379.66
2022-08-14T14:59:02.411Z,99369.91
2022-08-14T15:04:19.986Z,99368.84
2022-08-14T15:09:24.019Z,99364.97
2022-08-14T15:14:55.460Z,99370.25
2022-08-14T15:19:56.242Z,99367.00
2022-08-14T15:24:59.929Z,99379.06
2022-08-14T15:30:04.086Z,99369.63
2022-08-14T15:35:09.119Z,99369.91
2022-08-14T15:40:22.186Z,99360.75
2022-08-14T15:45:25.522Z,99367.47
2022-08-14T15:50:31.438Z,99363.53
2022-08-14T15:55:34.203Z,99367.88
2022-08-14T16:00:55.160Z,99348.75
2022-08-14T16:05:59.299Z,99355.06
2022-08-14T16:11:04.729Z,99348.22
2022-08-14T16:16:34.473Z,99335.25
2022-08-14T16:21:37.547Z,99326.97
2022-08-14T16:26:43.166Z,99329.00
2022-08-14T16:31:54.572Z,99329.31
2022-08-14T16:36:58.871Z,99321.03
2022-08-14T16:42:01.906Z,99313.88
2022-08-14T16:47:26.026Z,99322.25
2022-08-14T16:52:44.295Z,99312.44
2022-08-14T16:57:50.070Z,99300.03
2022-08-14T17:03:00.886Z,99295.78
2022-08-14T17:08:41.519Z,99293.41
2022-08-14T17:13:57.784Z,99281.38
2022-08-14T17:19:01.739Z,99276.84
2022-08-14T17:24:58.365Z,99273.94
2022-08-14T17:29:44.645Z,99256.63
2022-08-14T17:35:01.930Z,99250.25
2022-08-14T17:40:15.382Z,99256.53
2022-08-14T17:45:27.042Z,99252.28
2022-08-14T17:51:00.593Z,99253.78
2022-08-14T17:56:06.021Z,99255.78
2022-08-14T18:01:08.954Z,99257.91
2022-08-14T18:06:38.334Z,99259.00
2022-08-14T18:11:45.766Z,99258.97
2022-08-14T18:16:51.953Z,99260.00
2022-08-14T18:21:57.195Z,99265.84
2022-08-14T18:27:09.093Z,99266.22
2022-08-14T18:32:39.562Z,99277.38
2022-08-14T18:37:55.719Z,99284.50
2022-08-14T18:43:03.526Z,99282.44
2022-08-14T18:48:33.214Z,99289.00
2022-08-14T18:53:55.727Z,99297.41
2022-08-14T18:59:00.306Z,99294.22
2022-08-14T19:04:03.966Z,99301.81
2022-08-14T19:09:07.423Z,99315.28
2022-08-14T19:14:14.322Z,99311.56
2022-08-14T19:19:19.201Z,99309.72
2022-08-14T19:24:27.754Z,99302.19
2022-08-14T19:29:37.920Z,99309.47
2022-08-14T19:34:52.281Z,99299.56
2022-08-14T19:39:56.712Z,99298.78
2022-08-14T19:45:01.046Z,99299.34
2022-08-14T19:50:08.022Z,99295.88
2022-08-14T19:55:34.578Z,99297.47
2022-08-14T20:00:52.123Z,99295.59
2022-08-14T20:06:03.157Z,99286.72
2022-08-14T20:12:00.575Z,99290.22
2022-08-14T20:16:51.060Z,99286.19
2022-08-14T20:22:04.621Z,99287.78
2022-08-14T20:27:33.487Z,99278.09
2022-08-14T20:32:41.031Z,99275.41
2022-08-14T20:37:48.164Z,99281.59
2022-08-14T20:43:20.432Z,99269.16
2022-08-14T20:48:51.386Z,99275.84
2022-08-14T20:53:59.478Z,99278.28
2022-08-14T20:59:15.613Z,99280.44
2022-08-14T21:04:29.191Z,99275.56
2022-08-14T21:10:04.631Z,99280.38
2022-08-14T21:14:55.607Z,99278.75
2022-08-14T21:20:26.247Z,99274.16
2022-08-14T21:25:26.006Z,99274.09
2022-08-14T21:30:51.211Z,99278.91
2022-08-14T21:36:00.561Z,99277.81
2022-08-14T21:41:42.935Z,99284.19
2022-08-14T21:46:47.794Z,99277.09
2022-08-14T21:51:58.824Z,99280.88
2022-08-14T21:57:13.651Z,99275.50
2022-08-14T22:02:32.497Z,99272.81
2022-08-14T22:07:38.882Z,99268.25
2022-08-14T22:12:57.385Z,99261.03
2022-08-14T22:18:04.100Z,99268.56
2022-08-14T22:23:12.561Z,99259.97
2022-08-14T22:28:21.601Z,99258.31
2022-08-14T22:33:31.133Z,99247.81
2022-08-14T22:38:38.965Z,99242.69
2022-08-14T22:43:55.651Z,99244.53
2022-08-14T22:48:59.002Z,99227.03
2022-08-14T22:54:03.104Z,99219.44
2022-08-14T22:59:09.832Z,99223.66
2022-08-14T23:04:34.969Z,99220.09
2022-08-14T23:09:56.275Z,99213.06
2022-08-14T23:15:00.969Z,99205.75
2022-08-14T23:20:18.526Z,99201.94
2022-08-14T23:25:58.517Z,99196.81
2022-08-14T23:30:49.877Z,99195.13
2022-08-14T23:35:58.641Z,99199.88
2022-08-14T23:41:14.490Z,99197.19
2022-08-14T23:46:20.903Z,99191.84
2022-08-14T23:51:23.627Z,99191.84
2022-08-14T23:56:32.189Z,99172.25
